Time;durP1;ratioP1;P1;durP2;ratioP2;P2;SDS_P1;SDS_P2;PMS_P1;PMS_P2;Temp;Humidity;BMP_temperature;BMP_pressure;BME280_temperature;BME280_humidity;BME280_pressure;Samples;Min_cycle;Max_cycle;Signal;HPM_P1;HPM_P2
2022/06/15 00:00:01;;;;;;;12.13;4.97;;;;;;;;;;5086530;28;20807;-73
2022/06/15 00:02:27;;;;;;;9.43;4.90;;;;;;;;;;5077228;28;20090;-74
2022/06/15 00:04:53;;;;;;;9.52;4.70;;;;;;;;;;5096227;28;20053;-74
2022/06/15 00:07:20;;;;;;;10.93;4.82;;;;;;;;;;5093209;28;20048;-74
2022/06/15 00:09:46;;;;;;;7.90;4.60;;;;;;;;;;5098451;27;20078;-74
2022/06/15 00:12:12;;;;;;;8.82;4.80;;;;;;;;;;5095744;27;20136;-74
2022/06/15 00:14:39;;;;;;;9.88;5.47;;;;;;;;;;5094597;27;20532;-73
2022/06/15 00:17:05;;;;;;;13.00;5.57;;;;;;;;;;5094083;27;20143;-73
2022/06/15 00:19:33;;;;;;;11.68;5.47;;;;;;;;;;5089042;28;20483;-73
2022/06/15 00:22:00;;;;;;;12.18;5.53;;;;;;;;;;5086845;28;20159;-74
2022/06/15 00:24:26;;;;;;;11.13;5.68;;;;;;;;;;5072837;27;20805;-73
2022/06/15 00:26:52;;;;;;;9.57;5.22;;;;;;;;;;5095082;27;20084;-73
2022/06/15 00:29:19;;;;;;;11.70;5.47;;;;;;;;;;5090750;28;20052;-73
2022/06/15 00:31:45;;;;;;;9.50;6.18;;;;;;;;;;5087124;27;20059;-74
2022/06/15 00:34:11;;;;;;;9.95;5.80;;;;;;;;;;5084131;28;20118;-73
2022/06/15 00:36:38;;;;;;;11.20;5.97;;;;;;;;;;5084595;28;20056;-73
2022/06/15 00:39:04;;;;;;;8.52;5.32;;;;;;;;;;5094794;27;20053;-73
2022/06/15 00:41:32;;;;;;;14.45;6.43;;;;;;;;;;5071563;28;20052;-73
2022/06/15 00:44:00;;;;;;;14.30;6.47;;;;;;;;;;5099927;28;20508;-73
2022/06/15 00:46:31;;;;;;;14.20;6.75;;;;;;;;;;5092224;28;20055;-73
2022/06/15 00:49:00;;;;;;;13.80;6.82;;;;;;;;;;5095515;28;20067;-73
2022/06/15 00:51:27;;;;;;;13.15;7.10;;;;;;;;;;5082956;28;20138;-73
2022/06/15 00:53:54;;;;;;;13.20;6.80;;;;;;;;;;5093047;27;20065;-73
2022/06/15 00:56:22;;;;;;;13.88;6.00;;;;;;;;;;5068718;28;20051;-73
2022/06/15 00:58:50;;;;;;;11.85;6.47;;;;;;;;;;5092625;28;20135;-73
2022/06/15 01:01:17;;;;;;;9.93;6.35;;;;;;;;;;5097272;28;20058;-73
2022/06/15 01:03:44;;;;;;;13.05;6.82;;;;;;;;;;5092180;28;20506;-73
2022/06/15 01:06:31;;;;;;;11.45;5.90;;;;;;;;;;5090356;28;20044;-74
2022/06/15 01:09:21;;;;;;;11.40;6.80;;;;;;;;;;5061104;28;20056;-74
2022/06/15 01:11:50;;;;;;;11.60;6.78;;;;;;;;;;5073454;28;20144;-74
2022/06/15 01:14:35;;;;;;;12.93;6.65;;;;;;;;;;5096261;28;20740;-74
2022/06/15 01:17:05;;;;;;;12.43;6.97;;;;;;;;;;5091542;28;20195;-74
2022/06/15 01:19:32;;;;;;;10.00;6.50;;;;;;;;;;5087353;28;20523;-74
2022/06/15 01:22:17;;;;;;;13.43;6.72;;;;;;;;;;5092567;27;20052;-74
2022/06/15 01:24:55;;;;;;;15.82;7.18;;;;;;;;;;5090468;27;20208;-73
2022/06/15 01:27:34;;;;;;;17.45;7.75;;;;;;;;;;5084967;28;20059;-73
2022/06/15 01:30:21;;;;;;;16.98;7.70;;;;;;;;;;5092799;28;20500;-74
2022/06/15 01:32:47;;;;;;;17.05;8.70;;;;;;;;;;5091278;28;20050;-74
2022/06/15 01:35:20;;;;;;;17.85;7.30;;;;;;;;;;5089528;27;20063;-74
2022/06/15 01:37:56;;;;;;;22.92;7.78;;;;;;;;;;5068580;28;20048;-73
2022/06/15 01:40:25;;;;;;;17.95;6.82;;;;;;;;;;5090418;28;20501;-74
2022/06/15 01:43:13;;;;;;;18.02;7.07;;;;;;;;;;5092071;28;20090;-74
2022/06/15 01:45:41;;;;;;;14.30;7.55;;;;;;;;;;5086117;28;20052;-74
2022/06/15 01:48:10;;;;;;;15.82;6.50;;;;;;;;;;5084792;28;20053;-74
2022/06/15 01:50:38;;;;;;;11.88;6.15;;;;;;;;;;5093639;28;20059;-74
2022/06/15 01:53:13;;;;;;;19.67;7.75;;;;;;;;;;5080535;28;20936;-74
2022/06/15 01:55:46;;;;;;;16.05;6.68;;;;;;;;;;5082012;28;20116;-73
2022/06/15 01:58:14;;;;;;;12.32;6.93;;;;;;;;;;5070355;28;20055;-73
2022/06/15 02:00:42;;;;;;;14.38;6.22;;;;;;;;;;5082290;28;20052;-73
2022/06/15 02:03:08;;;;;;;10.38;6.20;;;;;;;;;;5092635;28;20465;-73
2022/06/15 02:05:35;;;;;;;11.35;5.22;;;;;;;;;;5074158;28;20052;-73
2022/06/15 02:08:09;;;;;;;13.13;5.93;;;;;;;;;;5100382;28;20577;-73
2022/06/15 02:10:39;;;;;;;9.32;5.90;;;;;;;;;;5090710;28;20098;-73
2022/06/15 02:13:10;;;;;;;17.13;6.13;;;;;;;;;;5090584;28;20951;-73
2022/06/15 02:15:36;;;;;;;;;;;;;;;;;;5089123;28;20431;-73
2022/06/15 02:18:06;;;;;;;9.55;5.10;;;;;;;;;;5086697;28;46092;-73
2022/06/15 02:20:36;;;;;;;9.73;5.72;;;;;;;;;;5095787;28;20132;-74
2022/06/15 02:23:04;;;;;;;12.40;5.57;;;;;;;;;;5081853;28;20254;-73
2022/06/15 02:25:32;;;;;;;11.10;5.97;;;;;;;;;;5096213;27;20052;-73
2022/06/15 02:28:00;;;;;;;16.55;5.97;;;;;;;;;;5085705;28;20055;-73
2022/06/15 02:30:27;;;;;;;13.10;5.70;;;;;;;;;;5092876;28;20056;-73
2022/06/15 02:32:54;;;;;;;11.45;5.72;;;;;;;;;;5086941;28;20443;-74
2022/06/15 02:35:21;;;;;;;12.80;5.85;;;;;;;;;;5099456;27;20044;-74
2022/06/15 02:37:48;;;;;;;9.35;5.90;;;;;;;;;;5087808;28;20052;-74
2022/06/15 02:40:18;;;;;;;13.35;5.85;;;;;;;;;;5086440;28;20139;-73
2022/06/15 02:42:47;;;;;;;12.32;6.97;;;;;;;;;;5070045;28;20136;-73
2022/06/15 02:45:17;;;;;;;11.50;5.95;;;;;;;;;;5077920;28;20098;-73
2022/06/15 02:47:43;;;;;;;10.30;5.88;;;;;;;;;;5092979;28;20139;-74
2022/06/15 02:50:12;;;;;;;11.82;5.40;;;;;;;;;;5092602;28;20143;-73
2022/06/15 02:52:42;;;;;;;10.15;5.20;;;;;;;;;;5065159;28;20091;-73
2022/06/15 02:55:09;;;;;;;16.38;6.10;;;;;;;;;;5067924;28;20186;-73
2022/06/15 02:57:50;;;;;;;12.48;5.63;;;;;;;;;;5088454;28;20139;-73
2022/06/15 03:00:18;;;;;;;10.60;5.47;;;;;;;;;;5086345;28;20202;-73
2022/06/15 03:02:45;;;;;;;14.70;5.93;;;;;;;;;;5098429;28;20202;-74
2022/06/15 03:05:12;;;;;;;12.23;5.45;;;;;;;;;;5072366;28;20087;-73
2022/06/15 03:07:38;;;;;;;14.07;5.85;;;;;;;;;;5073145;28;20055;-73
2022/06/15 03:10:05;;;;;;;14.02;5.75;;;;;;;;;;5092168;27;20122;-74
2022/06/15 03:12:31;;;;;;;10.43;5.38;;;;;;;;;;5092463;27;20052;-74
2022/06/15 03:14:57;;;;;;;14.48;4.85;;;;;;;;;;5070101;28;20146;-74
2022/06/15 03:17:24;;;;;;;16.10;5.25;;;;;;;;;;5078976;28;20056;-74
2022/06/15 03:19:50;;;;;;;18.60;6.07;;;;;;;;;;5096443;28;20481;-74
2022/06/15 03:22:17;;;;;;;17.67;5.45;;;;;;;;;;5086285;28;20432;-73
2022/06/15 03:24:43;;;;;;;17.23;5.10;;;;;;;;;;5101474;27;20204;-73
2022/06/15 03:27:09;;;;;;;13.73;5.13;;;;;;;;;;5086759;27;20155;-73
2022/06/15 03:29:36;;;;;;;18.52;5.30;;;;;;;;;;5099612;28;20516;-73
2022/06/15 03:32:03;;;;;;;18.92;5.35;;;;;;;;;;5082148;28;20056;-73
2022/06/15 03:34:30;;;;;;;12.52;5.22;;;;;;;;;;5092516;28;20134;-73
2022/06/15 03:36:56;;;;;;;11.82;5.13;;;;;;;;;;5067363;28;20048;-73
2022/06/15 03:39:22;;;;;;;13.40;4.68;;;;;;;;;;5079374;28;20062;-73
2022/06/15 03:41:49;;;;;;;14.88;5.18;;;;;;;;;;5097915;27;20040;-74
2022/06/15 03:44:15;;;;;;;18.63;5.40;;;;;;;;;;5097236;28;20142;-74
2022/06/15 03:46:42;;;;;;;15.63;5.70;;;;;;;;;;5094203;28;20056;-74
2022/06/15 03:49:08;;;;;;;11.88;4.97;;;;;;;;;;5091843;28;20165;-74
2022/06/15 03:51:34;;;;;;;13.95;4.88;;;;;;;;;;5076232;28;20076;-74
2022/06/15 03:54:01;;;;;;;12.82;5.05;;;;;;;;;;5093984;28;20049;-74
2022/06/15 03:57:00;;;;;;;15.00;5.05;;;;;;;;;;5096187;27;20754;-74
2022/06/15 03:59:26;;;;;;;11.48;5.03;;;;;;;;;;5043139;28;20590;-74
2022/06/15 04:01:52;;;;;;;11.35;5.15;;;;;;;;;;5089940;28;20056;-74
2022/06/15 04:04:19;;;;;;;12.38;4.90;;;;;;;;;;5094798;28;20054;-74
2022/06/15 04:06:46;;;;;;;13.60;5.00;;;;;;;;;;5075802;28;20552;-74
2022/06/15 04:09:12;;;;;;;11.02;4.57;;;;;;;;;;5093633;27;20649;-74
2022/06/15 04:14:24;;;;;;;15.30;4.63;;;;;;;;;;5089055;28;20052;-74
2022/06/15 04:16:53;;;;;;;13.13;4.38;;;;;;;;;;5084904;28;20053;-74
2022/06/15 04:19:21;;;;;;;11.93;4.80;;;;;;;;;;5070091;28;20053;-74
2022/06/15 04:21:47;;;;;;;12.05;4.20;;;;;;;;;;5084612;28;20056;-74
2022/06/15 04:24:18;;;;;;;9.75;4.18;;;;;;;;;;5087078;27;20058;-74
2022/06/15 04:26:45;;;;;;;9.25;4.32;;;;;;;;;;5103344;27;20056;-74
2022/06/15 04:29:11;;;;;;;8.23;3.90;;;;;;;;;;5097431;28;20121;-74
2022/06/15 04:31:38;;;;;;;12.95;4.60;;;;;;;;;;5096243;27;20048;-74
2022/06/15 04:34:05;;;;;;;13.18;5.07;;;;;;;;;;5089230;28;20159;-75
2022/06/15 04:36:31;;;;;;;10.27;4.82;;;;;;;;;;5089103;27;20051;-74
2022/06/15 04:38:58;;;;;;;11.80;4.82;;;;;;;;;;5103734;28;20511;-74
2022/06/15 04:41:24;;;;;;;11.27;5.55;;;;;;;;;;5103116;28;20044;-74
2022/06/15 04:43:50;;;;;;;11.68;5.28;;;;;;;;;;5097231;27;20052;-74
2022/06/15 04:46:17;;;;;;;12.98;5.20;;;;;;;;;;5075882;28;20056;-74
2022/06/15 04:48:44;;;;;;;11.85;5.15;;;;;;;;;;5065160;28;20052;-74
2022/06/15 04:51:17;;;;;;;12.77;5.20;;;;;;;;;;5092054;28;20119;-74
2022/06/15 04:53:44;;;;;;;11.90;5.70;;;;;;;;;;5096284;28;20503;-74
2022/06/15 04:56:10;;;;;;;9.45;6.25;;;;;;;;;;5084457;27;20522;-74
2022/06/15 04:58:39;;;;;;;14.52;5.93;;;;;;;;;;5093239;28;20052;-74
2022/06/15 05:01:06;;;;;;;11.25;6.13;;;;;;;;;;5087777;28;20049;-74
2022/06/15 05:03:36;;;;;;;12.52;5.50;;;;;;;;;;5092584;28;20630;-75
2022/06/15 05:06:13;;;;;;;11.40;6.43;;;;;;;;;;5100401;27;20060;-73
2022/06/15 05:08:39;;;;;;;10.40;5.97;;;;;;;;;;5086194;28;20049;-73
2022/06/15 05:11:06;;;;;;;11.52;6.50;;;;;;;;;;5086350;28;20057;-73
2022/06/15 05:13:32;;;;;;;11.32;6.32;;;;;;;;;;5085814;28;20139;-73
2022/06/15 05:15:58;;;;;;;10.65;6.22;;;;;;;;;;5099294;28;20132;-73
2022/06/15 05:18:25;;;;;;;10.73;6.03;;;;;;;;;;5083742;28;20052;-73
2022/06/15 05:20:51;;;;;;;12.55;5.80;;;;;;;;;;5086478;28;20522;-73
2022/06/15 05:23:18;;;;;;;11.80;6.25;;;;;;;;;;5078243;28;20047;-73
2022/06/15 05:25:44;;;;;;;16.67;6.57;;;;;;;;;;5106897;27;20058;-73
2022/06/15 05:28:12;;;;;;;11.63;5.90;;;;;;;;;;5099505;28;20056;-73
2022/06/15 05:30:38;;;;;;;12.32;6.72;;;;;;;;;;5067364;28;20456;-73
2022/06/15 05:33:05;;;;;;;10.88;5.85;;;;;;;;;;5084593;28;20057;-73
2022/06/15 05:35:31;;;;;;;10.30;6.13;;;;;;;;;;5088850;27;20090;-73
2022/06/15 05:37:57;;;;;;;11.93;6.13;;;;;;;;;;5083899;28;20052;-74
2022/06/15 05:40:24;;;;;;;9.25;6.28;;;;;;;;;;5084422;28;20391;-73
2022/06/15 05:42:50;;;;;;;12.68;5.78;;;;;;;;;;5099122;27;20127;-73
2022/06/15 05:45:16;;;;;;;8.90;5.53;;;;;;;;;;5087966;28;20052;-73
2022/06/15 05:47:43;;;;;;;11.25;5.20;;;;;;;;;;5100400;28;20135;-73
2022/06/15 05:50:10;;;;;;;10.35;5.25;;;;;;;;;;5072375;28;20052;-73
2022/06/15 05:52:38;;;;;;;16.55;5.25;;;;;;;;;;5071274;28;20062;-73
2022/06/15 05:55:04;;;;;;;8.40;4.55;;;;;;;;;;5086555;28;20060;-74
2022/06/15 05:57:31;;;;;;;11.98;4.97;;;;;;;;;;5085596;28;20057;-74
2022/06/15 05:59:57;;;;;;;11.25;5.65;;;;;;;;;;5071400;28;20143;-74
2022/06/15 06:02:26;;;;;;;10.40;5.03;;;;;;;;;;5073951;28;21136;-74
2022/06/15 06:04:53;;;;;;;11.85;4.80;;;;;;;;;;5081869;28;20056;-75
2022/06/15 06:07:20;;;;;;;10.32;4.60;;;;;;;;;;5083521;28;20048;-72
2022/06/15 06:09:47;;;;;;;8.50;4.53;;;;;;;;;;5085103;28;20101;-72
2022/06/15 06:12:13;;;;;;;7.07;4.60;;;;;;;;;;5089457;28;20483;-73
2022/06/15 06:14:40;;;;;;;9.75;4.85;;;;;;;;;;5100768;27;20066;-73
2022/06/15 06:17:07;;;;;;;9.63;4.75;;;;;;;;;;5078262;28;20053;-73
2022/06/15 06:19:34;;;;;;;7.93;4.35;;;;;;;;;;5072252;28;20052;-74
2022/06/15 06:22:01;;;;;;;11.60;4.90;;;;;;;;;;5091846;28;20056;-73
2022/06/15 06:24:27;;;;;;;10.43;4.43;;;;;;;;;;5075651;27;20068;-74
2022/06/15 06:26:58;;;;;;;11.52;4.80;;;;;;;;;;5087782;28;20048;-74
2022/06/15 06:29:26;;;;;;;9.40;4.18;;;;;;;;;;5086387;27;20052;-74
2022/06/15 06:31:52;;;;;;;11.45;4.22;;;;;;;;;;5079885;27;20150;-74
2022/06/15 06:34:19;;;;;;;7.97;4.68;;;;;;;;;;5085001;28;20140;-74
2022/06/15 06:36:45;;;;;;;11.43;4.30;;;;;;;;;;5096544;28;20062;-74
2022/06/15 06:39:18;;;;;;;9.40;3.92;;;;;;;;;;5070125;28;20051;-74
2022/06/15 06:41:45;;;;;;;11.30;3.83;;;;;;;;;;5076944;28;20549;-74
2022/06/15 06:44:12;;;;;;;12.27;3.90;;;;;;;;;;5090080;28;20441;-74
2022/06/15 06:46:41;;;;;;;13.43;4.88;;;;;;;;;;5090018;28;20049;-74
2022/06/15 06:49:08;;;;;;;12.23;3.83;;;;;;;;;;5092880;28;20052;-74
2022/06/15 06:51:35;;;;;;;10.85;3.53;;;;;;;;;;5074663;28;20151;-74
2022/06/15 06:54:03;;;;;;;13.50;3.85;;;;;;;;;;5088967;28;20048;-74
2022/06/15 06:56:29;;;;;;;9.95;4.28;;;;;;;;;;5095373;28;20056;-74
2022/06/15 06:58:56;;;;;;;10.02;4.00;;;;;;;;;;5087407;28;20122;-74
2022/06/15 07:01:22;;;;;;;6.65;3.38;;;;;;;;;;5096412;28;20092;-74
2022/06/15 07:03:49;;;;;;;8.05;3.92;;;;;;;;;;5088800;28;20143;-74
2022/06/15 07:06:15;;;;;;;9.88;3.80;;;;;;;;;;5084555;28;20103;-74
2022/06/15 07:08:42;;;;;;;6.32;3.45;;;;;;;;;;5090946;28;20135;-74
2022/06/15 07:11:09;;;;;;;12.75;3.88;;;;;;;;;;5082256;28;20059;-74
2022/06/15 07:13:35;;;;;;;8.10;3.70;;;;;;;;;;5088980;27;20139;-74
2022/06/15 07:16:05;;;;;;;9.32;3.35;;;;;;;;;;5081118;28;20140;-74
2022/06/15 07:18:32;;;;;;;8.90;4.00;;;;;;;;;;5071147;28;20068;-74
2022/06/15 07:21:06;;;;;;;9.43;3.92;;;;;;;;;;5101414;28;20507;-74
2022/06/15 07:23:32;;;;;;;8.30;3.40;;;;;;;;;;5099246;28;20055;-74
2022/06/15 07:26:06;;;;;;;6.05;3.55;;;;;;;;;;5092496;28;20082;-74
2022/06/15 07:28:33;;;;;;;9.05;4.00;;;;;;;;;;5091299;28;20060;-75
2022/06/15 07:30:59;;;;;;;6.38;3.90;;;;;;;;;;5099122;27;20906;-75
2022/06/15 07:33:26;;;;;;;9.35;3.47;;;;;;;;;;5090858;28;20140;-75
2022/06/15 07:35:52;;;;;;;8.73;3.33;;;;;;;;;;5083139;28;20091;-75
2022/06/15 07:38:19;;;;;;;9.88;3.60;;;;;;;;;;5065047;28;20052;-75
2022/06/15 07:40:58;;;;;;;10.25;3.50;;;;;;;;;;5099533;28;20048;-75
2022/06/15 07:43:24;;;;;;;11.90;3.70;;;;;;;;;;5092739;28;20109;-75
2022/06/15 07:45:50;;;;;;;10.95;3.83;;;;;;;;;;5080258;28;20045;-75
2022/06/15 07:51:02;;;;;;;6.63;3.10;;;;;;;;;;5083636;28;20048;-75
2022/06/15 07:53:28;;;;;;;10.45;3.35;;;;;;;;;;5120631;27;20074;-75
2022/06/15 07:55:56;;;;;;;9.93;3.35;;;;;;;;;;5085957;27;20562;-75
2022/06/15 07:58:23;;;;;;;10.10;3.05;;;;;;;;;;5086270;28;20054;-75
2022/06/15 08:00:49;;;;;;;6.95;2.92;;;;;;;;;;5094933;27;20052;-75
2022/06/15 08:03:17;;;;;;;11.77;3.20;;;;;;;;;;5086873;28;20136;-76
2022/06/15 08:05:45;;;;;;;9.75;2.72;;;;;;;;;;5081292;28;20515;-75
2022/06/15 08:08:30;;;;;;;6.75;2.50;;;;;;;;;;5102232;27;20051;-75
2022/06/15 08:10:56;;;;;;;6.40;2.70;;;;;;;;;;5101645;27;20151;-75
2022/06/15 08:13:23;;;;;;;7.95;2.63;;;;;;;;;;5091507;28;20052;-75
2022/06/15 08:15:50;;;;;;;8.43;2.10;;;;;;;;;;5101183;27;20064;-75
2022/06/15 08:18:19;;;;;;;8.38;2.15;;;;;;;;;;5095573;27;20121;-75
2022/06/15 08:20:53;;;;;;;9.43;2.00;;;;;;;;;;5097771;28;20048;-75
2022/06/15 08:23:21;;;;;;;5.40;1.98;;;;;;;;;;5099095;28;20881;-75
2022/06/15 08:25:53;;;;;;;7.93;2.45;;;;;;;;;;5094958;28;20582;-75
2022/06/15 08:28:21;;;;;;;6.53;2.20;;;;;;;;;;5098271;28;20055;-76
2022/06/15 08:30:49;;;;;;;;;;;;;;;;;;5090496;28;20059;-76
2022/06/15 08:33:15;;;;;;;6.85;1.85;;;;;;;;;;5094672;28;48339;-75
2022/06/15 08:35:42;;;;;;;6.32;1.90;;;;;;;;;;5093245;27;20056;-75
2022/06/15 08:38:09;;;;;;;9.77;2.17;;;;;;;;;;5092605;28;20061;-76
2022/06/15 08:40:56;;;;;;;6.35;2.42;;;;;;;;;;5094956;28;20511;-75
2022/06/15 08:43:31;;;;;;;5.85;1.60;;;;;;;;;;5097925;28;20053;-75
2022/06/15 08:46:04;;;;;;;6.88;2.00;;;;;;;;;;5073138;28;20056;-76
2022/06/15 08:49:00;;;;;;;9.85;2.00;;;;;;;;;;5100518;28;20053;-76
2022/06/15 08:51:42;;;;;;;7.60;2.28;;;;;;;;;;5041071;28;20060;-75
2022/06/15 08:54:17;;;;;;;7.72;2.00;;;;;;;;;;5095420;28;20172;-75
2022/06/15 08:57:17;;;;;;;8.18;1.95;;;;;;;;;;5097189;27;20088;-76
2022/06/15 08:59:45;;;;;;;7.85;1.90;;;;;;;;;;5046384;28;20052;-76
2022/06/15 09:02:29;;;;;;;8.90;2.20;;;;;;;;;;5099656;28;20151;-75
2022/06/15 09:05:14;;;;;;;6.15;2.03;;;;;;;;;;5098768;27;20055;-76
2022/06/15 09:07:52;;;;;;;5.43;2.00;;;;;;;;;;5087591;27;20048;-75
2022/06/15 09:10:37;;;;;;;6.88;1.92;;;;;;;;;;5077364;28;20128;-76
2022/06/15 09:13:25;;;;;;;5.13;1.70;;;;;;;;;;5094153;27;20126;-76
2022/06/15 09:16:01;;;;;;;5.95;1.73;;;;;;;;;;5094890;27;20539;-75
2022/06/15 09:18:37;;;;;;;5.80;1.80;;;;;;;;;;5098117;28;20577;-76
2022/06/15 09:21:16;;;;;;;5.18;1.73;;;;;;;;;;5100605;28;20056;-75
2022/06/15 09:23:46;;;;;;;5.47;1.35;;;;;;;;;;5088340;28;20148;-76
2022/06/15 09:26:22;;;;;;;5.03;1.98;;;;;;;;;;5099422;28;20518;-76
2022/06/15 09:28:51;;;;;;;6.28;1.90;;;;;;;;;;5095941;28;20134;-76
2022/06/15 09:31:20;;;;;;;12.80;2.15;;;;;;;;;;5104752;27;20048;-75
2022/06/15 09:33:49;;;;;;;9.18;2.05;;;;;;;;;;5102559;27;20052;-75
2022/06/15 09:36:19;;;;;;;6.47;1.60;;;;;;;;;;5101467;28;20048;-75
2022/06/15 09:38:45;;;;;;;5.72;1.80;;;;;;;;;;5082023;28;20147;-78
2022/06/15 09:41:26;;;;;;;5.55;1.88;;;;;;;;;;5083876;28;20525;-75
2022/06/15 09:44:02;;;;;;;7.10;2.00;;;;;;;;;;5066989;28;20056;-75
2022/06/15 09:46:28;;;;;;;6.93;2.00;;;;;;;;;;5102823;27;20052;-75
2022/06/15 09:49:02;;;;;;;7.15;1.85;;;;;;;;;;5088063;28;20167;-75
2022/06/15 09:51:48;;;;;;;6.40;2.00;;;;;;;;;;5085895;28;20143;-75
2022/06/15 09:54:14;;;;;;;5.47;1.75;;;;;;;;;;5083570;28;20143;-75
2022/06/15 09:56:41;;;;;;;6.97;2.00;;;;;;;;;;5100919;28;20060;-75
2022/06/15 09:59:09;;;;;;;8.68;1.90;;;;;;;;;;5094084;27;20079;-75
2022/06/15 10:01:37;;;;;;;4.63;1.80;;;;;;;;;;5091576;28;20083;-74
2022/06/15 10:04:05;;;;;;;4.72;1.70;;;;;;;;;;5099426;28;20052;-74
2022/06/15 10:06:57;;;;;;;5.75;1.80;;;;;;;;;;5087065;27;20056;-74
2022/06/15 10:09:26;;;;;;;5.10;1.75;;;;;;;;;;5077458;28;20139;-74
2022/06/15 10:11:54;;;;;;;9.45;2.08;;;;;;;;;;5095320;28;20508;-74
2022/06/15 10:14:24;;;;;;;5.07;2.00;;;;;;;;;;5102335;28;20544;-74
2022/06/15 10:16:50;;;;;;;;;;;;;;;;;;5091906;28;20143;-74
2022/06/15 10:19:17;;;;;;;8.40;1.80;;;;;;;;;;5093762;27;46337;-74
2022/06/15 10:21:49;;;;;;;7.70;2.08;;;;;;;;;;5097959;27;20048;-74
2022/06/15 10:24:16;;;;;;;8.13;1.70;;;;;;;;;;5099308;28;20055;-74
2022/06/15 10:27:08;;;;;;;5.40;1.88;;;;;;;;;;5094546;27;20127;-74
2022/06/15 10:29:34;;;;;;;5.63;2.10;;;;;;;;;;5090475;27;20063;-74
2022/06/15 10:32:00;;;;;;;6.15;2.00;;;;;;;;;;5102851;28;20583;-74
2022/06/15 10:34:29;;;;;;;8.82;2.10;;;;;;;;;;5090520;28;20057;-74
2022/06/15 10:36:56;;;;;;;6.00;2.25;;;;;;;;;;5091824;27;20052;-74
2022/06/15 10:39:24;;;;;;;5.63;1.60;;;;;;;;;;5095439;28;20139;-76
2022/06/15 10:42:09;;;;;;;5.68;1.98;;;;;;;;;;5094470;27;20055;-76
2022/06/15 10:44:38;;;;;;;6.88;2.03;;;;;;;;;;5090250;28;20045;-75
2022/06/15 10:47:05;;;;;;;6.30;1.92;;;;;;;;;;5100754;27;20132;-76
2022/06/15 10:49:40;;;;;;;6.07;1.92;;;;;;;;;;5093428;28;21036;-75
2022/06/15 10:52:21;;;;;;;9.07;2.35;;;;;;;;;;5096824;28;20537;-75
2022/06/15 11:03:11;;;;;;;5.82;2.05;;;;;;;;;;5086481;28;20128;-75
2022/06/15 11:05:38;;;;;;;6.10;1.90;;;;;;;;;;5098849;28;20052;-75
2022/06/15 11:08:11;;;;;;;7.50;2.03;;;;;;;;;;5092909;28;20057;-75
2022/06/15 11:10:39;;;;;;;6.00;1.80;;;;;;;;;;5094708;27;20530;-75
2022/06/15 11:13:05;;;;;;;5.72;1.98;;;;;;;;;;5091078;28;20079;-75
2022/06/15 11:18:39;;;;;;;7.63;2.20;;;;;;;;;;5090869;27;20059;-74
2022/06/15 11:21:12;;;;;;;6.47;1.70;;;;;;;;;;5093263;28;20167;-74
2022/06/15 11:23:43;;;;;;;9.20;1.92;;;;;;;;;;5073741;27;20118;-76
2022/06/15 11:29:02;;;;;;;6.28;1.70;;;;;;;;;;5091284;28;20144;-74
2022/06/15 11:31:49;;;;;;;6.10;1.75;;;;;;;;;;5079374;28;20056;-75
2022/06/15 11:34:20;;;;;;;5.72;1.83;;;;;;;;;;5074297;28;20052;-74
2022/06/15 11:36:51;;;;;;;4.78;1.70;;;;;;;;;;5074551;28;20059;-75
2022/06/15 11:39:20;;;;;;;6.55;1.70;;;;;;;;;;5090496;28;20055;-75
2022/06/15 11:41:51;;;;;;;4.07;1.70;;;;;;;;;;5096740;28;20087;-75
2022/06/15 11:44:23;;;;;;;6.10;1.63;;;;;;;;;;5072509;28;20083;-75
2022/06/15 11:46:56;;;;;;;9.85;1.88;;;;;;;;;;5088427;27;20106;-74
2022/06/15 11:49:28;;;;;;;6.63;1.65;;;;;;;;;;5099970;28;20504;-75
2022/06/15 11:52:11;;;;;;;5.07;1.98;;;;;;;;;;5101953;27;20506;-75
2022/06/15 11:55:01;;;;;;;6.82;1.85;;;;;;;;;;5067682;28;20424;-75
2022/06/15 11:57:34;;;;;;;4.80;1.83;;;;;;;;;;5092582;28;20055;-74
2022/06/15 12:00:00;;;;;;;9.25;2.13;;;;;;;;;;5085850;28;20048;-75
2022/06/15 12:02:42;;;;;;;6.30;1.90;;;;;;;;;;5100464;27;20135;-74
2022/06/15 12:05:20;;;;;;;5.03;1.80;;;;;;;;;;5093915;27;20059;-75
2022/06/15 12:07:59;;;;;;;5.60;1.90;;;;;;;;;;5089647;28;20121;-75
2022/06/15 12:10:25;;;;;;;4.90;1.75;;;;;;;;;;5061807;28;20052;-74
2022/06/15 12:13:07;;;;;;;6.63;2.03;;;;;;;;;;5066941;28;20484;-75
2022/06/15 12:15:57;;;;;;;6.05;1.73;;;;;;;;;;5091601;28;20515;-75
2022/06/15 12:18:43;;;;;;;4.68;1.70;;;;;;;;;;5077361;28;20507;-74
2022/06/15 12:21:09;;;;;;;5.32;1.67;;;;;;;;;;5092414;28;20058;-74
2022/06/15 12:23:59;;;;;;;7.03;1.98;;;;;;;;;;5086886;28;20052;-74
2022/06/15 12:26:32;;;;;;;8.30;1.80;;;;;;;;;;5087005;28;20110;-74
2022/06/15 12:29:05;;;;;;;4.90;1.50;;;;;;;;;;5084465;27;20132;-74
2022/06/15 12:31:40;;;;;;;6.10;1.70;;;;;;;;;;5090882;28;20054;-74
2022/06/15 12:34:06;;;;;;;4.82;1.67;;;;;;;;;;5093217;27;20109;-74
2022/06/15 12:36:36;;;;;;;5.28;1.60;;;;;;;;;;5089096;28;20058;-74
2022/06/15 12:39:08;;;;;;;6.55;1.83;;;;;;;;;;5086357;28;20857;-75
2022/06/15 12:44:22;;;;;;;4.88;1.70;;;;;;;;;;5092475;28;20625;-75
2022/06/15 12:46:49;;;;;;;6.53;1.55;;;;;;;;;;5078808;28;20052;-75
2022/06/15 12:49:42;;;;;;;4.60;1.60;;;;;;;;;;5102006;28;20051;-76
2022/06/15 12:52:11;;;;;;;7.35;2.20;;;;;;;;;;5095049;28;20569;-75
2022/06/15 12:54:37;;;;;;;7.35;1.90;;;;;;;;;;5087032;27;20048;-75
2022/06/15 12:57:19;;;;;;;4.78;1.67;;;;;;;;;;5095507;28;20569;-75
2022/06/15 12:59:46;;;;;;;5.50;1.52;;;;;;;;;;5101944;27;20159;-75
2022/06/15 13:02:28;;;;;;;6.53;1.70;;;;;;;;;;5100139;28;20212;-76
2022/06/15 13:05:05;;;;;;;6.38;1.77;;;;;;;;;;5088790;28;20076;-75
2022/06/15 13:07:36;;;;;;;8.18;1.80;;;;;;;;;;5085660;28;20140;-75
2022/06/15 13:10:20;;;;;;;6.57;1.85;;;;;;;;;;5099357;28;20048;-75
2022/06/15 13:12:47;;;;;;;4.88;1.70;;;;;;;;;;5092957;28;20047;-75
2022/06/15 13:15:22;;;;;;;5.22;1.75;;;;;;;;;;5084572;28;20624;-75
2022/06/15 13:18:06;;;;;;;3.88;1.50;;;;;;;;;;5083923;28;20051;-75
2022/06/15 13:20:33;;;;;;;6.22;1.80;;;;;;;;;;5091486;28;20044;-75
2022/06/15 13:23:00;;;;;;;8.10;1.77;;;;;;;;;;5099933;28;20053;-75
2022/06/15 13:25:28;;;;;;;7.13;1.93;;;;;;;;;;5091701;28;20205;-75
2022/06/15 13:27:54;;;;;;;4.88;1.40;;;;;;;;;;5089962;27;20167;-75
2022/06/15 13:30:23;;;;;;;7.70;1.83;;;;;;;;;;5097470;27;20063;-75
2022/06/15 13:32:49;;;;;;;6.03;1.60;;;;;;;;;;5086135;28;20141;-75
2022/06/15 13:35:41;;;;;;;11.30;2.10;;;;;;;;;;5088702;28;20056;-75
2022/06/15 13:38:23;;;;;;;4.93;1.75;;;;;;;;;;5083004;28;21056;-74
2022/06/15 13:40:58;;;;;;;5.50;1.88;;;;;;;;;;5086547;28;20052;-75
2022/06/15 13:43:51;;;;;;;6.38;1.80;;;;;;;;;;5074483;28;20076;-75
2022/06/15 13:46:20;;;;;;;5.13;1.77;;;;;;;;;;5081194;28;20054;-74
2022/06/15 13:48:47;;;;;;;6.38;1.70;;;;;;;;;;5094283;28;20466;-74
2022/06/15 13:51:15;;;;;;;6.18;1.70;;;;;;;;;;5077159;28;20067;-75
2022/06/15 13:54:07;;;;;;;5.82;1.60;;;;;;;;;;5084133;28;20588;-75
2022/06/15 13:56:33;;;;;;;4.75;1.63;;;;;;;;;;5092707;28;20060;-75
2022/06/15 13:59:21;;;;;;;6.72;1.85;;;;;;;;;;5088414;27;20052;-74
2022/06/15 14:01:50;;;;;;;7.43;2.00;;;;;;;;;;5078644;28;20719;-74
2022/06/15 14:04:32;;;;;;;4.75;1.60;;;;;;;;;;5101266;28;23022;-75
2022/06/15 14:07:08;;;;;;;5.00;1.40;;;;;;;;;;5095019;28;20087;-74
2022/06/15 14:09:44;;;;;;;6.13;1.60;;;;;;;;;;5089847;28;20126;-75
2022/06/15 14:12:16;;;;;;;8.55;1.77;;;;;;;;;;5080887;27;20195;-75
2022/06/15 14:14:49;;;;;;;4.18;1.60;;;;;;;;;;5087089;28;20131;-74
2022/06/15 14:17:18;;;;;;;5.32;1.75;;;;;;;;;;5093081;28;20134;-75
2022/06/15 14:19:57;;;;;;;6.00;1.65;;;;;;;;;;5089517;28;20052;-75
2022/06/15 14:22:23;;;;;;;4.93;1.77;;;;;;;;;;5084991;28;20179;-75
2022/06/15 14:25:03;;;;;;;6.53;1.70;;;;;;;;;;5094162;28;20130;-74
2022/06/15 14:27:32;;;;;;;5.28;1.58;;;;;;;;;;5071850;28;20052;-75
2022/06/15 14:29:59;;;;;;;3.72;1.35;;;;;;;;;;5084552;28;20102;-75
2022/06/15 14:32:27;;;;;;;3.65;1.50;;;;;;;;;;5098396;28;20056;-75
2022/06/15 14:35:00;;;;;;;4.20;1.83;;;;;;;;;;5094072;28;20531;-75
2022/06/15 14:37:26;;;;;;;6.18;1.90;;;;;;;;;;5086352;28;20083;-75
2022/06/15 14:39:54;;;;;;;6.10;1.70;;;;;;;;;;5094806;27;20527;-75
2022/06/15 14:42:28;;;;;;;6.85;1.50;;;;;;;;;;5090257;27;20098;-75
2022/06/15 14:45:11;;;;;;;5.65;1.52;;;;;;;;;;5100672;28;20152;-75
2022/06/15 14:47:37;;;;;;;5.15;1.50;;;;;;;;;;5071234;28;20055;-75
2022/06/15 14:50:04;;;;;;;4.97;1.30;;;;;;;;;;5098617;28;20135;-75
2022/06/15 14:52:33;;;;;;;4.72;1.42;;;;;;;;;;5095546;27;20058;-75
2022/06/15 14:55:19;;;;;;;7.18;1.70;;;;;;;;;;5094160;28;20053;-75
2022/06/15 14:57:46;;;;;;;7.00;1.80;;;;;;;;;;5094605;28;20135;-75
2022/06/15 15:00:24;;;;;;;7.05;1.67;;;;;;;;;;5087218;27;20140;-75
2022/06/15 15:02:52;;;;;;;4.55;1.50;;;;;;;;;;5085487;28;20721;-75
2022/06/15 15:05:19;;;;;;;5.40;1.73;;;;;;;;;;5070790;28;20057;-75
2022/06/15 15:10:32;;;;;;;5.05;1.50;;;;;;;;;;5100410;27;21130;-75
2022/06/15 15:13:15;;;;;;;4.25;1.50;;;;;;;;;;5098447;28;20113;-75
2022/06/15 15:15:50;;;;;;;5.63;1.70;;;;;;;;;;5066208;28;20140;-75
2022/06/15 15:18:45;;;;;;;7.18;1.90;;;;;;;;;;5096440;27;20056;-75
2022/06/15 15:21:17;;;;;;;3.83;1.77;;;;;;;;;;5098442;28;20471;-75
2022/06/15 15:23:44;;;;;;;4.22;1.70;;;;;;;;;;5098219;27;20138;-75